sensor_id;sensor_type;location;lat;lon;timestamp;pressure;altitude;pressure_sealevel;temperature;humidity
43147;BME280;28752;48.266;7.402;2023-02-25T00:02:22;98467.31;;;7.31;81.36
43147;BME280;28752;48.266;7.402;2023-02-25T00:04:48;98468.59;;;7.26;82.81
43147;BME280;28752;48.266;7.402;2023-02-25T00:07:13;98461.66;;;7.25;82.79
43147;BME280;28752;48.266;7.402;2023-02-25T00:09:39;98462.25;;;7.19;83.60
43147;BME280;28752;48.266;7.402;2023-02-25T00:12:05;98465.81;;;7.28;80.93
43147;BME280;28752;48.266;7.402;2023-02-25T00:14:30;98466.84;;;7.17;81.16
43147;BME280;28752;48.266;7.402;2023-02-25T00:16:56;98468.22;;;7.21;78.83
43147;BME280;28752;48.266;7.402;2023-02-25T00:19:24;98480.94;;;7.26;77.92
43147;BME280;28752;48.266;7.402;2023-02-25T00:21:50;98459.44;;;7.03;78.49
43147;BME280;28752;48.266;7.402;2023-02-25T00:24:16;98461.78;;;7.06;79.47
43147;BME280;28752;48.266;7.402;2023-02-25T00:26:42;98475.06;;;7.04;77.81
43147;BME280;28752;48.266;7.402;2023-02-25T00:29:08;98457.03;;;6.82;78.85
43147;BME280;28752;48.266;7.402;2023-02-25T00:31:33;98483.53;;;7.08;78.55
43147;BME280;28752;48.266;7.402;2023-02-25T00:33:58;98482.16;;;7.04;79.15
43147;BME280;28752;48.266;7.402;2023-02-25T00:36:25;98485.16;;;7.09;78.05
43147;BME280;28752;48.266;7.402;2023-02-25T00:38:53;98479.00;;;7.00;75.60
43147;BME280;28752;48.266;7.402;2023-02-25T00:41:23;98480.34;;;7.04;76.41
43147;BME280;28752;48.266;7.402;2023-02-25T00:43:54;98466.44;;;6.94;76.00
43147;BME280;28752;48.266;7.402;2023-02-25T00:46:20;98476.06;;;7.03;75.39
43147;BME280;28752;48.266;7.402;2023-02-25T00:48:46;98469.66;;;6.88;74.93
43147;BME280;28752;48.266;7.402;2023-02-25T00:51:17;98478.66;;;6.85;75.86
43147;BME280;28752;48.266;7.402;2023-02-25T00:53:44;98480.34;;;6.76;76.31
43147;BME280;28752;48.266;7.402;2023-02-25T00:56:11;98493.50;;;6.76;76.79
43147;BME280;28752;48.266;7.402;2023-02-25T00:58:41;98506.00;;;6.65;77.63
43147;BME280;28752;48.266;7.402;2023-02-25T01:01:16;98507.69;;;6.56;77.69
43147;BME280;28752;48.266;7.402;2023-02-25T01:03:42;98513.22;;;6.63;77.52
43147;BME280;28752;48.266;7.402;2023-02-25T01:06:07;98496.03;;;6.58;78.64
43147;BME280;28752;48.266;7.402;2023-02-25T01:08:33;98493.13;;;6.62;76.46
43147;BME280;28752;48.266;7.402;2023-02-25T01:10:59;98490.34;;;6.63;76.00
43147;BME280;28752;48.266;7.402;2023-02-25T01:13:24;98479.22;;;6.79;74.50
43147;BME280;28752;48.266;7.402;2023-02-25T01:15:49;98450.59;;;6.76;74.31
43147;BME280;28752;48.266;7.402;2023-02-25T01:18:15;98450.22;;;6.61;74.50
43147;BME280;28752;48.266;7.402;2023-02-25T01:20:44;98474.06;;;6.50;76.47
43147;BME280;28752;48.266;7.402;2023-02-25T01:23:09;98470.38;;;6.43;76.93
43147;BME280;28752;48.266;7.402;2023-02-25T01:25:39;98467.16;;;6.39;75.75
43147;BME280;28752;48.266;7.402;2023-02-25T01:28:04;98473.00;;;6.43;73.51
43147;BME280;28752;48.266;7.402;2023-02-25T01:30:30;98485.75;;;6.28;74.70
43147;BME280;28752;48.266;7.402;2023-02-25T01:32:56;98491.69;;;6.30;74.51
43147;BME280;28752;48.266;7.402;2023-02-25T01:35:21;98495.97;;;6.31;75.67
43147;BME280;28752;48.266;7.402;2023-02-25T01:37:47;98496.66;;;6.33;75.67
43147;BME280;28752;48.266;7.402;2023-02-25T01:40:15;98496.22;;;6.47;73.94
43147;BME280;28752;48.266;7.402;2023-02-25T01:42:42;98502.44;;;6.46;73.70
43147;BME280;28752;48.266;7.402;2023-02-25T01:47:51;98488.59;;;6.54;72.91
43147;BME280;28752;48.266;7.402;2023-02-25T01:50:19;98497.19;;;6.56;74.92
43147;BME280;28752;48.266;7.402;2023-02-25T01:52:46;98491.91;;;6.56;74.98
43147;BME280;28752;48.266;7.402;2023-02-25T01:55:12;98500.19;;;6.61;72.51
43147;BME280;28752;48.266;7.402;2023-02-25T01:57:37;98500.34;;;6.50;75.03
43147;BME280;28752;48.266;7.402;2023-02-25T02:00:06;98509.75;;;6.62;72.58
43147;BME280;28752;48.266;7.402;2023-02-25T02:02:46;98513.09;;;6.54;73.42
43147;BME280;28752;48.266;7.402;2023-02-25T02:05:13;98519.16;;;6.65;73.72
43147;BME280;28752;48.266;7.402;2023-02-25T02:07:39;98518.47;;;6.63;73.45
43147;BME280;28752;48.266;7.402;2023-02-25T02:10:06;98517.94;;;6.59;74.38
43147;BME280;28752;48.266;7.402;2023-02-25T02:12:35;98519.03;;;6.47;75.34
43147;BME280;28752;48.266;7.402;2023-02-25T02:15:03;98527.59;;;6.58;75.23
43147;BME280;28752;48.266;7.402;2023-02-25T02:20:06;98534.69;;;6.48;73.75
43147;BME280;28752;48.266;7.402;2023-02-25T02:22:43;98537.59;;;6.55;75.30
43147;BME280;28752;48.266;7.402;2023-02-25T02:34:10;98542.56;;;6.48;72.85
43147;BME280;28752;48.266;7.402;2023-02-25T02:37:06;98533.31;;;6.34;73.62
43147;BME280;28752;48.266;7.402;2023-02-25T02:40:27;98531.41;;;6.36;73.65
43147;BME280;28752;48.266;7.402;2023-02-25T02:48:19;98532.19;;;6.47;73.00
43147;BME280;28752;48.266;7.402;2023-02-25T02:50:53;98538.16;;;6.39;74.19
43147;BME280;28752;48.266;7.402;2023-02-25T02:53:25;98529.75;;;6.35;75.66
43147;BME280;28752;48.266;7.402;2023-02-25T02:55:54;98539.44;;;6.35;75.26
43147;BME280;28752;48.266;7.402;2023-02-25T03:01:13;98535.28;;;6.32;74.41
43147;BME280;28752;48.266;7.402;2023-02-25T03:03:44;98528.78;;;6.27;73.35
43147;BME280;28752;48.266;7.402;2023-02-25T03:06:14;98528.22;;;6.33;73.70
43147;BME280;28752;48.266;7.402;2023-02-25T03:08:44;98535.81;;;6.36;72.48
43147;BME280;28752;48.266;7.402;2023-02-25T03:11:12;98524.63;;;6.34;73.15
43147;BME280;28752;48.266;7.402;2023-02-25T03:13:38;98522.69;;;6.26;73.92
43147;BME280;28752;48.266;7.402;2023-02-25T03:16:08;98534.59;;;6.30;72.79
43147;BME280;28752;48.266;7.402;2023-02-25T03:18:38;98541.78;;;6.28;72.44
43147;BME280;28752;48.266;7.402;2023-02-25T03:21:14;98538.31;;;6.18;71.81
43147;BME280;28752;48.266;7.402;2023-02-25T03:23:44;98531.16;;;6.20;71.68
43147;BME280;28752;48.266;7.402;2023-02-25T03:26:27;98538.47;;;6.16;72.85
43147;BME280;28752;48.266;7.402;2023-02-25T03:28:54;98541.66;;;6.20;72.80
43147;BME280;28752;48.266;7.402;2023-02-25T03:31:28;98540.16;;;6.08;72.20
43147;BME280;28752;48.266;7.402;2023-02-25T03:34:00;98530.56;;;6.16;70.52
43147;BME280;28752;48.266;7.402;2023-02-25T03:36:33;98539.59;;;6.04;72.22
43147;BME280;28752;48.266;7.402;2023-02-25T03:39:12;98536.00;;;6.05;74.59
43147;BME280;28752;48.266;7.402;2023-02-25T03:41:43;98527.56;;;6.01;74.09
43147;BME280;28752;48.266;7.402;2023-02-25T03:44:16;98535.44;;;6.11;73.52
43147;BME280;28752;48.266;7.402;2023-02-25T03:46:45;98531.84;;;6.02;74.25
43147;BME280;28752;48.266;7.402;2023-02-25T03:49:15;98527.41;;;6.22;72.58
43147;BME280;28752;48.266;7.402;2023-02-25T03:51:44;98530.16;;;5.82;73.69
43147;BME280;28752;48.266;7.402;2023-02-25T03:54:12;98544.97;;;5.93;73.22
43147;BME280;28752;48.266;7.402;2023-02-25T03:56:45;98543.19;;;6.03;71.01
43147;BME280;28752;48.266;7.402;2023-02-25T03:59:11;98538.59;;;5.95;72.86
43147;BME280;28752;48.266;7.402;2023-02-25T04:01:37;98543.47;;;6.00;71.94
43147;BME280;28752;48.266;7.402;2023-02-25T04:04:04;98551.16;;;5.92;71.92
43147;BME280;28752;48.266;7.402;2023-02-25T04:06:29;98539.16;;;6.09;70.57
43147;BME280;28752;48.266;7.402;2023-02-25T04:08:56;98541.13;;;5.97;71.24
43147;BME280;28752;48.266;7.402;2023-02-25T04:11:22;98552.03;;;5.92;73.44
43147;BME280;28752;48.266;7.402;2023-02-25T04:13:47;98554.91;;;5.89;72.43
43147;BME280;28752;48.266;7.402;2023-02-25T04:16:13;98556.84;;;5.77;72.77
43147;BME280;28752;48.266;7.402;2023-02-25T04:18:39;98549.78;;;5.87;70.58
43147;BME280;28752;48.266;7.402;2023-02-25T04:21:07;98550.31;;;5.81;71.89
43147;BME280;28752;48.266;7.402;2023-02-25T04:23:34;98547.84;;;5.70;72.79
43147;BME280;28752;48.266;7.402;2023-02-25T04:26:00;98557.81;;;5.66;71.20
43147;BME280;28752;48.266;7.402;2023-02-25T04:28:25;98560.84;;;5.72;71.74
43147;BME280;28752;48.266;7.402;2023-02-25T04:30:51;98559.03;;;5.72;71.89
43147;BME280;28752;48.266;7.402;2023-02-25T04:33:16;98551.97;;;5.63;70.83
43147;BME280;28752;48.266;7.402;2023-02-25T04:35:42;98549.75;;;5.58;72.29
43147;BME280;28752;48.266;7.402;2023-02-25T04:38:08;98557.63;;;5.58;71.83
43147;BME280;28752;48.266;7.402;2023-02-25T04:40:33;98554.19;;;5.58;71.92
43147;BME280;28752;48.266;7.402;2023-02-25T04:42:59;98542.13;;;5.45;72.32
43147;BME280;28752;48.266;7.402;2023-02-25T04:45:24;98551.78;;;5.45;72.86
43147;BME280;28752;48.266;7.402;2023-02-25T04:47:54;98556.06;;;5.36;73.20
43147;BME280;28752;48.266;7.402;2023-02-25T04:50:22;98554.94;;;5.39;72.36
43147;BME280;28752;48.266;7.402;2023-02-25T04:52:48;98551.38;;;5.30;72.93
43147;BME280;28752;48.266;7.402;2023-02-25T04:55:14;98550.09;;;5.24;72.17
43147;BME280;28752;48.266;7.402;2023-02-25T04:57:39;98543.91;;;5.35;71.71
43147;BME280;28752;48.266;7.402;2023-02-25T05:00:16;98547.34;;;5.26;71.62
43147;BME280;28752;48.266;7.402;2023-02-25T05:02:46;98552.81;;;5.13;72.35
43147;BME280;28752;48.266;7.402;2023-02-25T05:05:12;98560.81;;;5.11;71.87
43147;BME280;28752;48.266;7.402;2023-02-25T05:07:38;98525.41;;;4.96;72.03
43147;BME280;28752;48.266;7.402;2023-02-25T05:10:05;98564.00;;;5.15;70.74
43147;BME280;28752;48.266;7.402;2023-02-25T05:12:31;98552.78;;;5.03;71.16
43147;BME280;28752;48.266;7.402;2023-02-25T05:14:56;98561.06;;;5.08;71.78
43147;BME280;28752;48.266;7.402;2023-02-25T05:17:21;98546.53;;;4.94;72.34
43147;BME280;28752;48.266;7.402;2023-02-25T05:19:47;98547.88;;;4.89;72.80
43147;BME280;28752;48.266;7.402;2023-02-25T05:22:12;98545.50;;;4.86;72.17
43147;BME280;28752;48.266;7.402;2023-02-25T05:24:38;98548.44;;;4.92;71.83
43147;BME280;28752;48.266;7.402;2023-02-25T05:27:03;98545.38;;;4.87;72.71
43147;BME280;28752;48.266;7.402;2023-02-25T05:29:34;98538.69;;;4.73;72.55
43147;BME280;28752;48.266;7.402;2023-02-25T05:32:00;98537.34;;;4.79;73.29
43147;BME280;28752;48.266;7.402;2023-02-25T05:34:25;98531.56;;;4.54;74.43
43147;BME280;28752;48.266;7.402;2023-02-25T05:36:51;98544.47;;;4.67;73.21
43147;BME280;28752;48.266;7.402;2023-02-25T05:39:16;98545.53;;;4.65;72.77
43147;BME280;28752;48.266;7.402;2023-02-25T05:41:41;98552.16;;;4.59;73.99
43147;BME280;28752;48.266;7.402;2023-02-25T05:44:09;98549.97;;;4.43;73.54
43147;BME280;28752;48.266;7.402;2023-02-25T05:46:34;98559.75;;;4.62;72.41
43147;BME280;28752;48.266;7.402;2023-02-25T05:49:00;98561.22;;;4.55;73.09
43147;BME280;28752;48.266;7.402;2023-02-25T05:51:25;98558.22;;;4.59;72.43
43147;BME280;28752;48.266;7.402;2023-02-25T05:53:51;98568.31;;;4.43;74.21
43147;BME280;28752;48.266;7.402;2023-02-25T05:56:20;98560.59;;;4.41;73.72
43147;BME280;28752;48.266;7.402;2023-02-25T05:58:46;98560.06;;;4.26;75.20
43147;BME280;28752;48.266;7.402;2023-02-25T06:01:14;98565.44;;;4.25;75.96
43147;BME280;28752;48.266;7.402;2023-02-25T06:03:41;98574.78;;;4.18;76.16
43147;BME280;28752;48.266;7.402;2023-02-25T06:06:08;98577.94;;;4.00;77.10
43147;BME280;28752;48.266;7.402;2023-02-25T06:08:37;98567.03;;;3.84;77.97
43147;BME280;28752;48.266;7.402;2023-02-25T06:11:05;98576.56;;;3.85;78.58
43147;BME280;28752;48.266;7.402;2023-02-25T06:13:31;98580.38;;;3.81;79.39
43147;BME280;28752;48.266;7.402;2023-02-25T06:15:56;98576.69;;;3.83;78.68
43147;BME280;28752;48.266;7.402;2023-02-25T06:18:22;98577.56;;;3.72;78.91
43147;BME280;28752;48.266;7.402;2023-02-25T06:20:47;98583.50;;;3.74;78.51
43147;BME280;28752;48.266;7.402;2023-02-25T06:23:13;98591.13;;;3.66;79.45
43147;BME280;28752;48.266;7.402;2023-02-25T06:25:38;98582.47;;;3.54;80.39
43147;BME280;28752;48.266;7.402;2023-02-25T06:28:03;98583.78;;;3.49;80.60
43147;BME280;28752;48.266;7.402;2023-02-25T06:30:29;98587.72;;;3.54;80.47
43147;BME280;28752;48.266;7.402;2023-02-25T06:32:56;98586.97;;;3.75;79.48
43147;BME280;28752;48.266;7.402;2023-02-25T06:35:21;98588.34;;;3.79;79.56
43147;BME280;28752;48.266;7.402;2023-02-25T06:37:53;98594.31;;;4.14;78.47
43147;BME280;28752;48.266;7.402;2023-02-25T06:40:19;98589.25;;;4.54;77.12
43147;BME280;28752;48.266;7.402;2023-02-25T06:42:44;98594.41;;;4.87;75.11
43147;BME280;28752;48.266;7.402;2023-02-25T06:45:09;98596.34;;;5.25;73.11
43147;BME280;28752;48.266;7.402;2023-02-25T06:47:35;98602.28;;;5.58;71.86
43147;BME280;28752;48.266;7.402;2023-02-25T06:50:00;98621.34;;;6.20;71.66
43147;BME280;28752;48.266;7.402;2023-02-25T06:52:25;98614.69;;;6.65;70.07
43147;BME280;28752;48.266;7.402;2023-02-25T06:54:51;98627.34;;;6.99;68.13
43147;BME280;28752;48.266;7.402;2023-02-25T06:57:16;98632.94;;;7.24;66.11
43147;BME280;28752;48.266;7.402;2023-02-25T06:59:42;98644.22;;;7.54;65.51
43147;BME280;28752;48.266;7.402;2023-02-25T07:02:11;98647.84;;;7.98;64.03
43147;BME280;28752;48.266;7.402;2023-02-25T07:04:37;98647.41;;;8.21;62.35
43147;BME280;28752;48.266;7.402;2023-02-25T07:07:02;98642.78;;;8.51;61.44
43147;BME280;28752;48.266;7.402;2023-02-25T07:09:27;98645.50;;;9.03;60.46
43147;BME280;28752;48.266;7.402;2023-02-25T07:11:53;98628.13;;;9.27;59.59
43147;BME280;28752;48.266;7.402;2023-02-25T07:14:18;98638.06;;;9.33;59.00
43147;BME280;28752;48.266;7.402;2023-02-25T07:16:43;98623.59;;;9.11;58.68
43147;BME280;28752;48.266;7.402;2023-02-25T07:19:09;98638.97;;;9.16;58.66
43147;BME280;28752;48.266;7.402;2023-02-25T07:21:34;98637.63;;;9.12;58.38
43147;BME280;28752;48.266;7.402;2023-02-25T07:23:59;98640.16;;;8.95;59.76
43147;BME280;28752;48.266;7.402;2023-02-25T07:26:25;98640.97;;;8.96;59.96
43147;BME280;28752;48.266;7.402;2023-02-25T07:28:56;98625.84;;;8.80;59.30
43147;BME280;28752;48.266;7.402;2023-02-25T07:31:22;98643.50;;;8.43;60.24
43147;BME280;28752;48.266;7.402;2023-02-25T07:33:48;98640.94;;;8.33;61.18
43147;BME280;28752;48.266;7.402;2023-02-25T07:36:14;98649.88;;;8.05;60.82
43147;BME280;28752;48.266;7.402;2023-02-25T07:38:40;98636.16;;;7.83;61.15
43147;BME280;28752;48.266;7.402;2023-02-25T07:41:10;98635.81;;;7.40;60.02
43147;BME280;28752;48.266;7.402;2023-02-25T07:43:36;98633.97;;;7.13;59.32
43147;BME280;28752;48.266;7.402;2023-02-25T07:46:02;98645.25;;;6.86;57.61
43147;BME280;28752;48.266;7.402;2023-02-25T07:48:28;98641.97;;;6.64;56.30
43147;BME280;28752;48.266;7.402;2023-02-25T07:50:54;98646.09;;;6.76;56.36
43147;BME280;28752;48.266;7.402;2023-02-25T07:53:20;98640.56;;;6.80;55.30
43147;BME280;28752;48.266;7.402;2023-02-25T07:55:47;98651.22;;;6.78;54.39
43147;BME280;28752;48.266;7.402;2023-02-25T07:58:13;98652.19;;;6.67;52.50
43147;BME280;28752;48.266;7.402;2023-02-25T08:00:39;98645.56;;;6.73;53.28
43147;BME280;28752;48.266;7.402;2023-02-25T08:03:10;98643.50;;;6.67;52.43
43147;BME280;28752;48.266;7.402;2023-02-25T08:05:36;98637.25;;;6.78;52.13
43147;BME280;28752;48.266;7.402;2023-02-25T08:08:03;98653.16;;;6.86;50.78
43147;BME280;28752;48.266;7.402;2023-02-25T08:10:29;98645.66;;;6.81;51.01
43147;BME280;28752;48.266;7.402;2023-02-25T08:12:54;98654.91;;;6.95;50.22
43147;BME280;28752;48.266;7.402;2023-02-25T08:15:19;98655.09;;;6.84;49.70
43147;BME280;28752;48.266;7.402;2023-02-25T08:17:45;98642.34;;;6.89;50.58
43147;BME280;28752;48.266;7.402;2023-02-25T08:20:10;98653.00;;;6.87;48.96
43147;BME280;28752;48.266;7.402;2023-02-25T08:22:36;98646.34;;;6.93;48.90
43147;BME280;28752;48.266;7.402;2023-02-25T08:25:03;98652.56;;;7.02;48.54
43147;BME280;28752;48.266;7.402;2023-02-25T08:27:29;98632.03;;;7.05;49.60
43147;BME280;28752;48.266;7.402;2023-02-25T08:29:55;98639.22;;;7.13;49.85
43147;BME280;28752;48.266;7.402;2023-02-25T08:32:21;98642.00;;;7.11;48.14
43147;BME280;28752;48.266;7.402;2023-02-25T08:34:49;98642.91;;;7.30;49.01
43147;BME280;28752;48.266;7.402;2023-02-25T08:37:15;98648.53;;;7.45;48.84
43147;BME280;28752;48.266;7.402;2023-02-25T08:39:40;98641.06;;;7.40;47.45
43147;BME280;28752;48.266;7.402;2023-02-25T08:42:07;98644.66;;;7.49;46.84
43147;BME280;28752;48.266;7.402;2023-02-25T08:44:33;98654.97;;;7.70;48.38
43147;BME280;28752;48.266;7.402;2023-02-25T08:46:58;98656.13;;;7.58;45.74
43147;BME280;28752;48.266;7.402;2023-02-25T08:49:23;98665.69;;;7.87;48.63
43147;BME280;28752;48.266;7.402;2023-02-25T08:51:49;98660.31;;;8.06;48.48
43147;BME280;28752;48.266;7.402;2023-02-25T08:54:15;98665.38;;;8.35;49.49
43147;BME280;28752;48.266;7.402;2023-02-25T08:56:41;98652.41;;;8.06;46.84
43147;BME280;28752;48.266;7.402;2023-02-25T08:59:10;98662.94;;;8.06;46.66
43147;BME280;28752;48.266;7.402;2023-02-25T09:01:36;98657.53;;;8.08;48.01
43147;BME280;28752;48.266;7.402;2023-02-25T09:04:11;98663.25;;;7.75;46.07
43147;BME280;28752;48.266;7.402;2023-02-25T09:06:37;98659.19;;;7.81;47.56
43147;BME280;28752;48.266;7.402;2023-02-25T09:09:02;98659.34;;;7.79;46.45
43147;BME280;28752;48.266;7.402;2023-02-25T09:11:29;98656.94;;;8.14;46.52
43147;BME280;28752;48.266;7.402;2023-02-25T09:13:54;98654.41;;;8.58;45.24
43147;BME280;28752;48.266;7.402;2023-02-25T09:16:20;98633.44;;;9.01;46.94
43147;BME280;28752;48.266;7.402;2023-02-25T09:18:47;98648.50;;;9.09;43.46
43147;BME280;28752;48.266;7.402;2023-02-25T09:21:13;98630.41;;;9.56;45.90
43147;BME280;28752;48.266;7.402;2023-02-25T09:23:39;98641.13;;;9.55;42.44
43147;BME280;28752;48.266;7.402;2023-02-25T09:26:05;98631.00;;;9.76;43.45
43147;BME280;28752;48.266;7.402;2023-02-25T09:28:31;98628.09;;;10.04;45.29
43147;BME280;28752;48.266;7.402;2023-02-25T09:30:57;98624.31;;;10.15;42.03
43147;BME280;28752;48.266;7.402;2023-02-25T09:33:23;98619.00;;;9.56;41.52
43147;BME280;28752;48.266;7.402;2023-02-25T09:35:48;98630.06;;;8.91;41.63
43147;BME280;28752;48.266;7.402;2023-02-25T09:38:14;98623.47;;;8.68;43.18
43147;BME280;28752;48.266;7.402;2023-02-25T09:40:40;98629.34;;;8.62;43.50
43147;BME280;28752;48.266;7.402;2023-02-25T09:43:24;98632.28;;;8.23;43.79
43147;BME280;28752;48.266;7.402;2023-02-25T09:45:53;98642.53;;;8.08;44.09
43147;BME280;28752;48.266;7.402;2023-02-25T09:48:28;98642.56;;;7.98;44.98
43147;BME280;28752;48.266;7.402;2023-02-25T09:51:03;98630.56;;;7.86;45.11
43147;BME280;28752;48.266;7.402;2023-02-25T09:53:39;98630.25;;;7.99;44.78
43147;BME280;28752;48.266;7.402;2023-02-25T09:56:06;98638.53;;;8.22;44.92
43147;BME280;28752;48.266;7.402;2023-02-25T09:58:35;98635.19;;;8.48;45.08
43147;BME280;28752;48.266;7.402;2023-02-25T10:01:05;98641.97;;;8.68;44.67
43147;BME280;28752;48.266;7.402;2023-02-25T10:06:31;98644.59;;;8.68;45.70
43147;BME280;28752;48.266;7.402;2023-02-25T10:09:12;98631.25;;;8.70;45.73
43147;BME280;28752;48.266;7.402;2023-02-25T10:15:27;98622.78;;;8.30;45.00
43147;BME280;28752;48.266;7.402;2023-02-25T10:23:03;98640.28;;;8.31;47.46
43147;BME280;28752;48.266;7.402;2023-02-25T10:25:35;98636.88;;;8.21;47.19
43147;BME280;28752;48.266;7.402;2023-02-25T10:28:04;98635.50;;;8.35;47.45
43147;BME280;28752;48.266;7.402;2023-02-25T10:33:23;98630.94;;;8.37;47.87
43147;BME280;28752;48.266;7.402;2023-02-25T10:35:55;98631.44;;;8.41;48.41
43147;BME280;28752;48.266;7.402;2023-02-25T10:38:22;98632.06;;;8.34;48.76
43147;BME280;28752;48.266;7.402;2023-02-25T10:40:48;98633.09;;;8.06;48.56
43147;BME280;28752;48.266;7.402;2023-02-25T10:43:20;98621.38;;;7.72;48.98
43147;BME280;28752;48.266;7.402;2023-02-25T10:45:48;98630.34;;;7.79;49.19
43147;BME280;28752;48.266;7.402;2023-02-25T10:48:22;98626.31;;;8.03;49.30
43147;BME280;28752;48.266;7.402;2023-02-25T10:53:27;98619.75;;;8.07;46.03
43147;BME280;28752;48.266;7.402;2023-02-25T10:55:53;98623.00;;;8.01;46.97
43147;BME280;28752;48.266;7.402;2023-02-25T10:58:31;98633.41;;;8.03;47.26
43147;BME280;28752;48.266;7.402;2023-02-25T11:01:09;98630.72;;;7.85;46.99
43147;BME280;28752;48.266;7.402;2023-02-25T11:03:45;98630.75;;;8.03;47.40
43147;BME280;28752;48.266;7.402;2023-02-25T11:06:16;98631.22;;;8.16;46.98
43147;BME280;28752;48.266;7.402;2023-02-25T11:08:42;98620.91;;;8.41;48.83
43147;BME280;28752;48.266;7.402;2023-02-25T11:11:15;98619.56;;;8.18;46.28
43147;BME280;28752;48.266;7.402;2023-02-25T11:13:42;98618.25;;;8.23;47.29
43147;BME280;28752;48.266;7.402;2023-02-25T11:16:11;98595.44;;;8.13;47.28
43147;BME280;28752;48.266;7.402;2023-02-25T11:18:38;98608.69;;;8.04;46.88
43147;BME280;28752;48.266;7.402;2023-02-25T11:21:07;98602.66;;;7.93;47.01
43147;BME280;28752;48.266;7.402;2023-02-25T11:26:14;98601.72;;;7.85;46.23
43147;BME280;28752;48.266;7.402;2023-02-25T11:28:45;98604.66;;;7.81;46.63
43147;BME280;28752;48.266;7.402;2023-02-25T11:31:15;98613.66;;;7.89;46.55
43147;BME280;28752;48.266;7.402;2023-02-25T11:33:44;98609.72;;;7.75;47.09
43147;BME280;28752;48.266;7.402;2023-02-25T11:36:19;98600.59;;;7.69;46.65
43147;BME280;28752;48.266;7.402;2023-02-25T11:38:45;98623.84;;;7.74;46.88
43147;BME280;28752;48.266;7.402;2023-02-25T11:41:21;98619.19;;;7.68;46.46
43147;BME280;28752;48.266;7.402;2023-02-25T11:43:48;98615.91;;;7.56;46.15
43147;BME280;28752;48.266;7.402;2023-02-25T11:46:31;98612.97;;;7.59;47.52
43147;BME280;28752;48.266;7.402;2023-02-25T11:49:00;98604.47;;;7.47;46.85
43147;BME280;28752;48.266;7.402;2023-02-25T12:00:26;98611.28;;;7.68;47.12
43147;BME280;28752;48.266;7.402;2023-02-25T12:03:22;98619.28;;;7.48;47.43
43147;BME280;28752;48.266;7.402;2023-02-25T12:06:11;98617.44;;;7.58;47.30
43147;BME280;28752;48.266;7.402;2023-02-25T12:28:09;98602.22;;;7.52;47.26
43147;BME280;28752;48.266;7.402;2023-02-25T12:33:55;98603.31;;;7.50;46.54
43147;BME280;28752;48.266;7.402;2023-02-25T12:36:39;98607.84;;;7.29;46.55
43147;BME280;28752;48.266;7.402;2023-02-25T12:40:03;98591.69;;;7.24;46.94
43147;BME280;28752;48.266;7.402;2023-02-25T12:45:08;98616.63;;;7.48;46.40
43147;BME280;28752;48.266;7.402;2023-02-25T12:48:11;98613.13;;;7.57;44.88
43147;BME280;28752;48.266;7.402;2023-02-25T13:01:58;98598.38;;;8.10;43.87
43147;BME280;28752;48.266;7.402;2023-02-25T13:04:40;98598.31;;;8.02;43.93
43147;BME280;28752;48.266;7.402;2023-02-25T13:13:13;98584.22;;;8.29;44.25
43147;BME280;28752;48.266;7.402;2023-02-25T13:18:31;98591.47;;;8.09;43.22
43147;BME280;28752;48.266;7.402;2023-02-25T13:21:13;98595.66;;;8.02;44.05
43147;BME280;28752;48.266;7.402;2023-02-25T13:24:08;98595.81;;;8.18;43.62
43147;BME280;28752;48.266;7.402;2023-02-25T13:29:48;98594.31;;;8.16;42.95
43147;BME280;28752;48.266;7.402;2023-02-25T13:32:44;98596.50;;;8.03;43.47
43147;BME280;28752;48.266;7.402;2023-02-25T13:38:25;98594.25;;;8.08;42.94
43147;BME280;28752;48.266;7.402;2023-02-25T13:52:31;98567.94;;;8.34;44.63
43147;BME280;28752;48.266;7.402;2023-02-25T13:55:21;98582.25;;;8.31;43.43
43147;BME280;28752;48.266;7.402;2023-02-25T14:00:52;98581.28;;;8.32;43.61
43147;BME280;28752;48.266;7.402;2023-02-25T14:09:00;98582.69;;;8.27;43.45
43147;BME280;28752;48.266;7.402;2023-02-25T14:17:26;98584.59;;;8.16;43.33
43147;BME280;28752;48.266;7.402;2023-02-25T14:22:44;98587.53;;;8.13;44.63
43147;BME280;28752;48.266;7.402;2023-02-25T14:25:21;98584.44;;;8.00;44.50
43147;BME280;28752;48.266;7.402;2023-02-25T14:28:00;98579.97;;;7.82;44.32
43147;BME280;28752;48.266;7.402;2023-02-25T14:47:19;98585.91;;;7.39;47.98
43147;BME280;28752;48.266;7.402;2023-02-25T14:50:24;98576.91;;;7.41;47.48
43147;BME280;28752;48.266;7.402;2023-02-25T14:53:07;98584.44;;;7.26;49.33
43147;BME280;28752;48.266;7.402;2023-02-25T15:03:41;98589.19;;;7.23;50.60
43147;BME280;28752;48.266;7.402;2023-02-25T15:20:36;98602.88;;;7.54;47.50
43147;BME280;28752;48.266;7.402;2023-02-25T15:23:16;98598.47;;;7.55;48.09
43147;BME280;28752;48.266;7.402;2023-02-25T15:25:46;98599.44;;;7.54;46.43
43147;BME280;28752;48.266;7.402;2023-02-25T15:36:43;98614.28;;;7.17;46.29
43147;BME280;28752;48.266;7.402;2023-02-25T15:42:09;98597.09;;;7.23;45.78
43147;BME280;28752;48.266;7.402;2023-02-25T15:44:40;98604.56;;;7.27;45.45
43147;BME280;28752;48.266;7.402;2023-02-25T15:47:14;98618.81;;;7.25;44.91
43147;BME280;28752;48.266;7.402;2023-02-25T15:49:46;98595.19;;;7.05;44.81
43147;BME280;28752;48.266;7.402;2023-02-25T15:52:12;98610.13;;;7.15;44.99
43147;BME280;28752;48.266;7.402;2023-02-25T15:55:18;98607.09;;;7.09;45.36
43147;BME280;28752;48.266;7.402;2023-02-25T15:57:45;98593.44;;;6.96;45.35
43147;BME280;28752;48.266;7.402;2023-02-25T16:08:52;98616.44;;;6.94;47.27
43147;BME280;28752;48.266;7.402;2023-02-25T16:11:31;98608.06;;;7.08;47.32
43147;BME280;28752;48.266;7.402;2023-02-25T16:13:59;98613.47;;;7.07;49.40
43147;BME280;28752;48.266;7.402;2023-02-25T16:16:28;98611.81;;;7.06;48.56
43147;BME280;28752;48.266;7.402;2023-02-25T16:18:56;98622.22;;;6.98;46.29
43147;BME280;28752;48.266;7.402;2023-02-25T16:21:38;98619.50;;;6.89;46.00
43147;BME280;28752;48.266;7.402;2023-02-25T16:24:09;98617.53;;;6.91;47.51
43147;BME280;28752;48.266;7.402;2023-02-25T16:29:39;98616.88;;;6.89;45.70
43147;BME280;28752;48.266;7.402;2023-02-25T16:34:49;98618.66;;;6.89;48.70
43147;BME280;28752;48.266;7.402;2023-02-25T16:37:22;98624.75;;;6.89;48.10
43147;BME280;28752;48.266;7.402;2023-02-25T16:39:51;98614.53;;;6.86;45.78